createdAt,value
2022-11-08T00:01:41.199Z,15.00
2022-11-08T00:04:22.534Z,15.00
2022-11-08T00:07:27.198Z,14.90
2022-11-08T00:10:27.870Z,14.90
2022-11-08T00:13:32.139Z,15.00
2022-11-08T00:16:13.451Z,15.00
2022-11-08T00:19:01.176Z,14.90
2022-11-08T00:21:42.531Z,14.90
2022-11-08T00:24:30.179Z,14.80
2022-11-08T00:27:14.441Z,15.00
2022-11-08T00:30:02.207Z,15.00
2022-11-08T00:32:50.234Z,14.80
2022-11-08T00:35:31.330Z,14.70
2022-11-08T00:38:19.480Z,14.60
2022-11-08T00:41:00.297Z,14.70
2022-11-08T00:43:49.150Z,14.70
2022-11-08T00:46:31.369Z,14.90
2022-11-08T00:49:19.159Z,14.80
2022-11-08T00:52:00.405Z,14.60
2022-11-08T00:54:48.167Z,14.50
2022-11-08T00:57:53.501Z,14.50
2022-11-08T01:00:32.238Z,14.60
2022-11-08T01:03:30.129Z,14.50
2022-11-08T01:06:12.423Z,14.50
2022-11-08T01:09:00.153Z,14.70
2022-11-08T01:11:45.309Z,14.50
2022-11-08T01:14:33.153Z,14.40
2022-11-08T01:17:16.371Z,14.50
2022-11-08T01:20:04.157Z,14.50
2022-11-08T01:22:45.279Z,14.50
2022-11-08T01:25:33.150Z,14.50
2022-11-08T01:28:14.586Z,14.50
2022-11-08T01:31:02.175Z,14.30
2022-11-08T01:33:52.198Z,14.40
2022-11-08T01:36:33.609Z,14.40
2022-11-08T01:39:22.263Z,14.20
2022-11-08T01:42:03.586Z,14.20
2022-11-08T01:45:06.176Z,14.10
2022-11-08T01:47:47.590Z,14.00
2022-11-08T01:50:36.233Z,14.10
2022-11-08T01:53:17.574Z,14.20
2022-11-08T01:56:06.169Z,14.20
2022-11-08T01:58:50.822Z,14.20
2022-11-08T02:01:38.348Z,14.30
2022-11-08T02:04:19.680Z,14.40
2022-11-08T02:07:09.271Z,14.20
2022-11-08T02:09:50.640Z,14.20
2022-11-08T02:12:40.156Z,14.30
2022-11-08T02:15:29.246Z,14.30
2022-11-08T02:18:10.403Z,14.10
2022-11-08T02:21:02.161Z,14.20
2022-11-08T02:24:01.403Z,14.10
2022-11-08T02:26:52.254Z,14.10
2022-11-08T02:29:35.316Z,14.10
2022-11-08T02:32:23.195Z,14.00
2022-11-08T02:35:27.176Z,13.90
2022-11-08T02:38:08.583Z,14.00
2022-11-08T02:41:00.183Z,14.00
2022-11-08T02:43:56.185Z,14.00
2022-11-08T02:46:44.180Z,14.00
2022-11-08T02:49:25.377Z,14.10
2022-11-08T02:52:13.237Z,14.00
2022-11-08T02:54:54.409Z,14.00
2022-11-08T02:57:42.255Z,14.10
2022-11-08T03:00:25.384Z,14.20
2022-11-08T03:03:13.189Z,14.10
2022-11-08T03:06:01.266Z,13.80
2022-11-08T03:08:42.545Z,13.80
2022-11-08T03:11:30.195Z,13.70
2022-11-08T03:14:11.589Z,13.70
2022-11-08T03:17:01.200Z,14.00
2022-11-08T03:19:42.590Z,14.20
2022-11-08T03:22:30.261Z,14.40
2022-11-08T03:25:11.733Z,14.50
2022-11-08T03:28:00.208Z,14.20
2022-11-08T03:30:41.592Z,14.20
2022-11-08T03:33:31.216Z,14.20
2022-11-08T03:36:19.269Z,14.10
2022-11-08T03:39:00.357Z,14.20
2022-11-08T03:41:48.211Z,14.10
2022-11-08T03:44:29.434Z,14.20
2022-11-08T03:47:17.188Z,14.00
2022-11-08T03:50:00.432Z,14.10
2022-11-08T03:52:49.185Z,13.90
2022-11-08T03:55:32.368Z,14.00
2022-11-08T03:58:20.629Z,13.90
2022-11-08T04:01:01.494Z,14.00
2022-11-08T04:03:49.280Z,14.00
2022-11-08T04:06:39.280Z,14.00
2022-11-08T04:09:21.797Z,14.00
2022-11-08T04:12:26.275Z,13.90
2022-11-08T04:15:17.701Z,13.90
2022-11-08T04:18:24.268Z,13.80
2022-11-08T04:21:21.776Z,13.80
2022-11-08T04:24:11.226Z,13.70
2022-11-08T04:26:52.564Z,13.80
2022-11-08T04:29:40.239Z,13.90
2022-11-08T04:32:28.202Z,13.70
2022-11-08T04:35:09.422Z,13.80
2022-11-08T04:37:57.210Z,13.70
2022-11-08T04:40:40.382Z,13.70
2022-11-08T04:43:28.212Z,13.80
2022-11-08T04:46:17.458Z,13.60
2022-11-08T04:48:59.225Z,13.60
2022-11-08T04:51:40.640Z,13.60
2022-11-08T04:54:28.246Z,13.70
2022-11-08T04:57:24.242Z,13.70
2022-11-08T05:00:06.092Z,13.60
2022-11-08T05:02:53.376Z,13.50
2022-11-08T05:05:34.709Z,13.60
2022-11-08T05:08:22.297Z,13.80
2022-11-08T05:11:03.781Z,13.80
2022-11-08T05:13:53.308Z,13.60
2022-11-08T05:16:34.657Z,13.60
2022-11-08T05:19:42.232Z,13.60
2022-11-08T05:22:48.234Z,13.60
2022-11-08T05:25:29.356Z,13.50
2022-11-08T05:28:17.583Z,13.60
2022-11-08T05:31:03.444Z,13.70
2022-11-08T05:33:51.302Z,13.90
2022-11-08T05:36:32.500Z,13.80
2022-11-08T05:39:20.260Z,13.90
2022-11-08T05:42:01.459Z,13.90
2022-11-08T05:44:49.289Z,13.80
2022-11-08T05:47:32.473Z,13.90
2022-11-08T05:50:20.234Z,14.00
2022-11-08T05:53:08.254Z,14.00
2022-11-08T05:55:49.828Z,14.00
2022-11-08T05:58:37.256Z,14.10
2022-11-08T06:01:19.716Z,14.00
2022-11-08T06:04:09.269Z,14.10
2022-11-08T06:06:50.867Z,13.90
2022-11-08T06:09:38.340Z,13.90
2022-11-08T06:12:20.656Z,13.80
2022-11-08T06:15:08.316Z,14.00
2022-11-08T06:17:49.762Z,14.10
2022-11-08T06:20:39.367Z,14.00
2022-11-08T06:23:27.319Z,14.00
2022-11-08T06:26:08.454Z,14.10
2022-11-08T06:28:56.321Z,14.10
2022-11-08T06:31:42.657Z,14.00
2022-11-08T06:34:30.264Z,14.10
2022-11-08T06:37:13.441Z,14.00
2022-11-08T06:40:01.262Z,14.00
2022-11-08T06:42:42.495Z,14.20
2022-11-08T06:45:30.264Z,14.20
2022-11-08T06:48:12.459Z,13.90
2022-11-08T06:51:00.281Z,13.70
2022-11-08T06:53:50.304Z,13.70
2022-11-08T06:56:32.517Z,13.80
2022-11-08T06:59:20.262Z,13.80
2022-11-08T07:02:01.793Z,13.80
2022-11-08T07:04:50.349Z,13.80
2022-11-08T07:07:31.653Z,13.80
2022-11-08T07:10:21.336Z,13.70
2022-11-08T07:13:03.302Z,13.80
2022-11-08T07:15:54.315Z,13.70
2022-11-08T07:18:42.325Z,13.70
2022-11-08T07:21:23.519Z,13.70
2022-11-08T07:24:11.280Z,13.70
2022-11-08T07:26:54.476Z,13.70
2022-11-08T07:29:42.293Z,13.80
2022-11-08T07:32:23.579Z,13.90
2022-11-08T07:35:11.300Z,13.80
2022-11-08T07:37:52.418Z,13.80
2022-11-08T07:40:40.348Z,14.00
2022-11-08T07:43:23.827Z,14.00
2022-11-08T07:46:16.286Z,13.90
2022-11-08T07:49:04.369Z,13.80
2022-11-08T07:51:45.722Z,13.80
2022-11-08T07:54:33.304Z,13.90
2022-11-08T07:57:14.610Z,14.10
2022-11-08T08:00:07.716Z,14.30
2022-11-08T08:02:48.718Z,14.10
2022-11-08T08:05:36.293Z,14.10
2022-11-08T08:08:17.833Z,14.20
2022-11-08T08:11:06.400Z,14.40
2022-11-08T08:13:47.595Z,14.40
2022-11-08T08:16:37.296Z,14.40
2022-11-08T08:19:25.264Z,14.40
2022-11-08T08:22:06.546Z,14.40
2022-11-08T08:24:54.328Z,14.50
2022-11-08T08:27:36.550Z,14.70
2022-11-08T08:30:25.422Z,14.80
2022-11-08T08:33:28.029Z,14.80
2022-11-08T08:36:16.321Z,14.70
2022-11-08T08:38:57.438Z,14.80
2022-11-08T08:41:45.299Z,14.80
2022-11-08T08:44:40.302Z,14.70
2022-11-08T08:47:21.729Z,14.70
2022-11-08T08:50:11.332Z,14.70
2022-11-08T08:52:52.608Z,14.80
2022-11-08T08:55:41.396Z,15.00
2022-11-08T08:58:22.968Z,14.90
2022-11-08T09:04:16.639Z,15.00
2022-11-08T09:07:06.389Z,15.20
2022-11-08T09:09:47.615Z,15.40
2022-11-08T09:12:35.313Z,15.50
2022-11-08T09:15:23.354Z,15.50
2022-11-08T09:18:04.634Z,15.30
2022-11-08T09:20:52.406Z,15.40
2022-11-08T09:23:35.595Z,15.50
2022-11-08T09:26:23.422Z,15.60
2022-11-08T09:29:04.478Z,15.50
2022-11-08T09:31:52.309Z,15.50
2022-11-08T09:34:34.598Z,15.70
2022-11-08T09:37:22.316Z,15.50
2022-11-08T09:40:05.621Z,15.70
2022-11-08T09:42:57.326Z,15.70
2022-11-08T09:45:54.424Z,15.80
2022-11-08T09:48:37.491Z,15.90
2022-11-08T09:51:28.378Z,16.00
2022-11-08T09:54:18.490Z,16.10
2022-11-08T09:57:11.317Z,16.20
2022-11-08T09:59:55.893Z,16.20
2022-11-08T10:02:47.330Z,16.30
2022-11-08T10:05:35.358Z,16.40
2022-11-08T10:08:25.317Z,16.50
2022-11-08T10:11:24.928Z,16.70
2022-11-08T10:14:21.379Z,16.60
2022-11-08T10:17:14.536Z,16.60
2022-11-08T10:20:14.342Z,16.70
2022-11-08T10:23:05.365Z,16.70
2022-11-08T10:25:50.544Z,16.60
2022-11-08T10:28:40.334Z,16.60
2022-11-08T10:31:23.656Z,16.80
2022-11-08T10:34:12.346Z,16.80
2022-11-08T10:36:55.587Z,16.70
2022-11-08T10:39:47.366Z,16.80
2022-11-08T10:42:39.564Z,16.80
2022-11-08T10:45:27.345Z,16.90
2022-11-08T10:48:10.514Z,17.10
2022-11-08T10:50:59.447Z,16.80
2022-11-08T10:53:40.540Z,16.70
2022-11-08T10:56:32.973Z,16.90
2022-11-08T10:59:35.566Z,16.80
2022-11-08T11:02:27.419Z,16.70
2022-11-08T11:05:37.377Z,16.90
2022-11-08T11:08:20.068Z,16.80
2022-11-08T11:11:08.379Z,17.00
2022-11-08T11:14:05.368Z,16.80
2022-11-08T11:17:09.392Z,16.90
2022-11-08T11:19:54.181Z,17.10
2022-11-08T11:22:44.353Z,17.00
2022-11-08T11:25:25.917Z,17.10
2022-11-08T11:28:15.675Z,17.10
2022-11-08T11:31:01.111Z,17.10
2022-11-08T11:33:57.383Z,16.80
2022-11-08T11:36:38.943Z,16.90
2022-11-08T11:39:29.378Z,16.80
2022-11-08T11:42:39.271Z,16.90
2022-11-08T11:45:25.417Z,16.80
2022-11-08T11:48:18.741Z,16.90
2022-11-08T11:50:59.645Z,16.80
2022-11-08T11:53:49.113Z,16.90
2022-11-08T11:56:40.990Z,16.90
2022-11-08T11:59:47.385Z,16.80
2022-11-08T12:02:47.580Z,17.00
2022-11-08T12:05:58.366Z,16.80
2022-11-08T12:08:45.100Z,16.80
2022-11-08T12:11:40.376Z,16.80
2022-11-08T12:14:39.613Z,16.80
2022-11-08T12:17:33.508Z,16.60
2022-11-08T12:20:33.384Z,16.80
2022-11-08T12:23:28.551Z,16.90
2022-11-08T12:26:12.398Z,17.00
2022-11-08T12:29:03.149Z,17.10
2022-11-08T12:31:54.449Z,17.20
2022-11-08T12:34:43.239Z,17.40
2022-11-08T12:37:37.413Z,17.20
2022-11-08T12:40:20.241Z,17.20
2022-11-08T12:43:19.407Z,17.40
2022-11-08T12:46:16.502Z,17.20
2022-11-08T12:49:05.394Z,17.30
2022-11-08T12:51:55.445Z,17.30
2022-11-08T12:54:47.402Z,17.40
2022-11-08T12:57:29.176Z,17.40
2022-11-08T13:00:20.367Z,17.40
2022-11-08T13:03:13.529Z,17.50
2022-11-08T13:06:05.383Z,17.70
2022-11-08T13:08:51.261Z,17.70
2022-11-08T13:11:44.491Z,17.30
2022-11-08T13:14:26.128Z,17.30
2022-11-08T13:17:32.438Z,17.40
2022-11-08T13:20:42.449Z,17.40
2022-11-08T13:23:27.791Z,17.40
2022-11-08T13:26:25.383Z,17.40
2022-11-08T13:29:14.267Z,17.30
2022-11-08T13:32:05.404Z,17.50
2022-11-08T13:34:50.512Z,17.40
2022-11-08T13:37:53.388Z,17.30
2022-11-08T13:40:41.728Z,17.10
2022-11-08T13:43:37.396Z,17.30
2022-11-08T13:46:43.644Z,17.20
2022-11-08T13:49:26.466Z,17.30
2022-11-08T13:52:26.445Z,17.40
2022-11-08T13:55:14.400Z,17.60
2022-11-08T13:57:58.520Z,17.50
2022-11-08T14:00:49.414Z,17.60
2022-11-08T14:03:49.354Z,17.80
2022-11-08T14:06:41.464Z,17.60
2022-11-08T14:09:33.188Z,17.50
2022-11-08T14:12:25.430Z,17.50
2022-11-08T14:15:10.879Z,17.40
2022-11-08T14:18:00.400Z,17.50
2022-11-08T14:20:42.736Z,17.50
2022-11-08T14:23:37.778Z,17.60
2022-11-08T14:26:21.271Z,17.50
2022-11-08T14:29:08.442Z,17.30
2022-11-08T14:32:01.609Z,17.40
2022-11-08T14:34:50.476Z,17.40
2022-11-08T14:37:31.741Z,17.40
2022-11-08T14:40:20.446Z,17.40
2022-11-08T14:43:01.883Z,17.60
2022-11-08T14:45:49.493Z,17.70
2022-11-08T14:48:32.167Z,17.70
2022-11-08T14:51:20.508Z,17.70
2022-11-08T14:54:02.992Z,17.50
2022-11-08T14:56:51.518Z,17.50
2022-11-08T14:59:39.521Z,17.50
2022-11-08T15:02:21.871Z,17.50
2022-11-08T15:05:12.536Z,17.50
2022-11-08T15:07:53.673Z,17.60
2022-11-08T15:10:41.440Z,17.50
2022-11-08T15:13:22.624Z,17.50
2022-11-08T15:16:11.537Z,17.50
2022-11-08T15:18:52.669Z,17.40
2022-11-08T15:21:41.468Z,17.50
2022-11-08T15:24:23.776Z,17.40
2022-11-08T15:27:21.674Z,17.30
2022-11-08T15:30:08.487Z,17.20
2022-11-08T15:32:56.562Z,17.30
2022-11-08T15:35:40.654Z,17.20
2022-11-08T15:38:36.477Z,17.10
2022-11-08T15:41:42.535Z,17.10
2022-11-08T15:44:25.506Z,17.00
2022-11-08T15:47:14.526Z,17.00
2022-11-08T15:49:58.528Z,17.00
2022-11-08T15:52:46.505Z,17.10
2022-11-08T15:55:30.742Z,17.10
2022-11-08T15:58:18.804Z,17.20
2022-11-08T16:01:00.454Z,17.10
2022-11-08T16:03:48.470Z,17.10
2022-11-08T16:06:29.930Z,17.10
2022-11-08T16:09:17.441Z,17.00
2022-11-08T16:12:07.477Z,17.10
2022-11-08T16:14:48.637Z,17.10
2022-11-08T16:17:36.460Z,17.00
2022-11-08T16:20:24.734Z,16.90
2022-11-08T16:23:13.482Z,16.70
2022-11-08T16:25:56.883Z,16.80
2022-11-08T16:28:46.548Z,16.90
2022-11-08T16:31:27.672Z,16.90
2022-11-08T16:34:17.499Z,16.80
2022-11-08T16:36:58.728Z,17.00
2022-11-08T16:39:40.573Z,16.90
2022-11-08T16:42:28.578Z,16.90
2022-11-08T16:45:11.636Z,16.90
2022-11-08T16:47:59.531Z,16.90
2022-11-08T16:50:40.819Z,16.90
2022-11-08T16:53:29.474Z,17.10
2022-11-08T16:56:10.624Z,17.00
2022-11-08T16:58:58.500Z,16.80
2022-11-08T17:01:41.805Z,17.00
2022-11-08T17:04:29.466Z,16.90
2022-11-08T17:07:14.182Z,16.90
2022-11-08T17:10:02.593Z,16.90
2022-11-08T17:12:50.545Z,17.00
2022-11-08T17:15:31.883Z,17.10
2022-11-08T17:18:21.902Z,17.10
2022-11-08T17:21:29.914Z,17.10
2022-11-08T17:24:19.834Z,17.10
2022-11-08T17:27:03.044Z,16.90
2022-11-08T17:29:50.540Z,16.90
2022-11-08T17:32:31.935Z,16.90
2022-11-08T17:35:22.533Z,16.90
2022-11-08T17:38:10.490Z,17.10
2022-11-08T17:40:51.671Z,17.00
2022-11-08T17:43:39.497Z,16.90
2022-11-08T17:46:34.472Z,16.90
2022-11-08T17:49:22.623Z,16.90
2022-11-08T17:52:05.743Z,16.80
2022-11-08T17:54:53.528Z,16.90
2022-11-08T17:57:35.843Z,17.00
2022-11-08T18:00:24.594Z,17.10
2022-11-08T18:03:12.503Z,17.10
2022-11-08T18:06:00.510Z,17.00
2022-11-08T18:08:50.588Z,16.90
2022-11-08T18:11:31.787Z,16.80
2022-11-08T18:14:23.012Z,16.80
2022-11-08T18:17:06.795Z,16.90
2022-11-08T18:19:54.590Z,17.00
2022-11-08T18:22:35.891Z,17.00
2022-11-08T18:25:24.511Z,17.00
2022-11-08T18:28:05.672Z,17.00
2022-11-08T18:30:53.557Z,16.90
2022-11-08T18:33:34.731Z,16.90
2022-11-08T18:36:24.532Z,17.00
2022-11-08T18:39:18.170Z,17.10
2022-11-08T18:42:01.269Z,17.20
2022-11-08T18:44:48.581Z,17.20
2022-11-08T18:47:43.538Z,17.20
2022-11-08T18:50:31.579Z,17.20
2022-11-08T18:53:12.777Z,17.10
2022-11-08T18:56:00.533Z,17.20
2022-11-08T18:58:43.782Z,17.20
2022-11-08T19:01:31.641Z,17.20
2022-11-08T19:04:12.758Z,17.20
2022-11-08T19:07:00.566Z,17.10
2022-11-08T19:09:48.524Z,17.20
2022-11-08T19:12:30.347Z,17.20
2022-11-08T19:15:20.540Z,17.20
2022-11-08T19:18:01.856Z,17.10
2022-11-08T19:20:49.549Z,17.10
2022-11-08T19:23:31.025Z,17.10
2022-11-08T19:26:20.535Z,17.00
2022-11-08T19:29:03.224Z,17.10
2022-11-08T19:31:53.568Z,17.10
2022-11-08T19:34:34.963Z,16.90
2022-11-08T19:37:23.521Z,17.00
2022-11-08T19:40:12.605Z,16.90
2022-11-08T19:42:53.833Z,16.90
2022-11-08T19:45:41.610Z,17.00
2022-11-08T19:48:30.689Z,17.00
2022-11-08T19:51:12.589Z,17.10
2022-11-08T19:53:55.362Z,17.10
2022-11-08T19:59:46.497Z,17.00
2022-11-08T20:02:34.569Z,17.00
2022-11-08T20:05:23.607Z,16.90
2022-11-08T20:08:07.307Z,16.90
2022-11-08T20:10:56.705Z,16.90
2022-11-08T20:13:38.096Z,16.90
2022-11-08T20:16:26.542Z,16.90
2022-11-08T20:19:08.787Z,16.80
2022-11-08T20:21:57.562Z,16.80
2022-11-08T20:24:38.775Z,16.90
2022-11-08T20:27:26.550Z,16.90
2022-11-08T20:30:14.604Z,16.90
2022-11-08T20:32:55.986Z,16.90
2022-11-08T20:35:44.552Z,16.90
2022-11-08T20:38:27.385Z,16.90
2022-11-08T20:41:15.599Z,17.00
2022-11-08T20:43:57.072Z,17.00
2022-11-08T20:46:44.555Z,16.90
2022-11-08T20:49:25.987Z,16.90
2022-11-08T20:52:13.564Z,16.80
2022-11-08T20:54:56.842Z,16.90
2022-11-08T20:57:44.639Z,16.90
2022-11-08T21:00:56.947Z,16.90
2022-11-08T21:03:34.021Z,16.90
2022-11-08T21:06:22.702Z,16.90
2022-11-08T21:09:27.584Z,16.90
2022-11-08T21:12:13.575Z,16.80
2022-11-08T21:14:54.824Z,16.80
2022-11-08T21:17:42.563Z,16.80
2022-11-08T21:20:23.815Z,16.80
2022-11-08T21:23:11.589Z,16.70
2022-11-08T21:25:53.798Z,16.60
2022-11-08T21:28:43.569Z,16.70
2022-11-08T21:31:24.785Z,16.60
2022-11-08T21:34:12.673Z,16.60
2022-11-08T21:37:00.604Z,16.60
2022-11-08T21:39:42.039Z,16.70
2022-11-08T21:42:29.665Z,16.60
2022-11-08T21:45:12.560Z,16.50
2022-11-08T21:48:03.612Z,16.40
2022-11-08T21:50:45.080Z,16.40
2022-11-08T21:53:32.603Z,16.30
2022-11-08T21:56:14.257Z,16.40
2022-11-08T21:59:01.571Z,16.30
2022-11-08T22:01:44.445Z,16.30
2022-11-08T22:04:32.694Z,16.30
2022-11-08T22:07:20.628Z,16.20
2022-11-08T22:10:01.802Z,16.20
2022-11-08T22:12:49.633Z,16.30
2022-11-08T22:15:32.740Z,16.30
2022-11-08T22:18:36.859Z,16.20
2022-11-08T22:21:39.527Z,16.20
2022-11-08T22:24:28.580Z,16.30
2022-11-08T22:27:16.608Z,16.40
2022-11-08T22:29:58.043Z,16.30
2022-11-08T22:32:45.586Z,16.30
2022-11-08T22:35:28.409Z,16.30
2022-11-08T22:38:15.911Z,16.30
2022-11-08T22:40:57.075Z,16.30
2022-11-08T22:43:44.618Z,16.30
2022-11-08T22:46:39.603Z,16.30
2022-11-08T22:49:27.594Z,16.30
2022-11-08T22:52:17.591Z,16.30
2022-11-08T22:54:59.011Z,16.30
2022-11-08T22:57:46.599Z,16.20
2022-11-08T23:00:30.090Z,16.30
2022-11-08T23:03:18.728Z,16.40
2022-11-08T23:05:59.972Z,16.40
2022-11-08T23:08:49.594Z,16.30
2022-11-08T23:11:48.490Z,16.30
2022-11-08T23:14:53.603Z,16.30
2022-11-08T23:17:41.652Z,16.30
2022-11-08T23:20:41.179Z,16.40
2022-11-08T23:23:46.704Z,16.40
2022-11-08T23:26:47.365Z,16.30
2022-11-08T23:29:51.580Z,16.40
2022-11-08T23:32:32.866Z,16.30
2022-11-08T23:35:21.594Z,16.30
2022-11-08T23:38:03.813Z,16.30
2022-11-08T23:41:11.609Z,16.20
2022-11-08T23:44:18.659Z,16.20
2022-11-08T23:47:14.634Z,16.20
2022-11-08T23:50:02.607Z,16.20
2022-11-08T23:52:43.820Z,16.20
2022-11-08T23:55:31.668Z,16.30
2022-11-08T23:58:12.769Z,16.30
